createdAt,value
2018-06-10T00:02:22.962Z,16.40
2018-06-10T00:06:27.742Z,16.40
2018-06-10T00:10:32.611Z,16.30
2018-06-10T00:14:37.862Z,16.30
2018-06-10T00:18:43.952Z,16.20
2018-06-10T00:22:48.879Z,16.30
2018-06-10T00:26:54.321Z,16.40
2018-06-10T00:35:07.716Z,16.10
2018-06-10T00:39:12.503Z,16.00
2018-06-10T00:43:17.803Z,16.00
2018-06-10T00:47:22.595Z,16.00
2018-06-10T00:51:27.797Z,16.00
2018-06-10T00:55:33.016Z,16.00
2018-06-10T00:59:38.374Z,16.00
2018-06-10T01:03:44.212Z,15.90
2018-06-10T01:07:50.275Z,15.80
2018-06-10T01:16:00.366Z,15.70
2018-06-10T01:20:05.175Z,15.60
2018-06-10T01:24:10.506Z,15.60
2018-06-10T01:28:15.542Z,15.60
2018-06-10T01:32:20.632Z,15.60
2018-06-10T01:36:25.989Z,15.50
2018-06-10T01:40:31.055Z,15.50
2018-06-10T01:44:35.695Z,15.50
2018-06-10T01:48:40.347Z,15.60
2018-06-10T01:52:45.259Z,15.50
2018-06-10T01:56:50.739Z,15.40
2018-06-10T02:00:56.221Z,15.40
2018-06-10T02:05:01.554Z,15.30
2018-06-10T02:09:07.591Z,15.40
2018-06-10T02:17:17.209Z,15.40
2018-06-10T02:21:22.473Z,15.40
2018-06-10T02:29:32.616Z,15.30
2018-06-10T02:33:37.744Z,15.20
2018-06-10T02:41:47.574Z,15.10
2018-06-10T02:45:54.044Z,15.10
2018-06-10T02:50:00.228Z,15.10
2018-06-10T02:54:04.983Z,15.00
2018-06-10T02:58:10.367Z,15.00
2018-06-10T03:02:17.150Z,15.00
2018-06-10T03:06:22.593Z,14.90
2018-06-10T03:10:28.532Z,14.90
2018-06-10T03:18:39.363Z,15.00
2018-06-10T03:22:45.233Z,14.90
2018-06-10T03:26:49.880Z,14.90
2018-06-10T03:30:54.594Z,15.00
2018-06-10T03:34:59.706Z,14.90
2018-06-10T03:39:05.267Z,15.00
2018-06-10T03:43:11.100Z,15.00
2018-06-10T03:47:15.738Z,15.10
2018-06-10T03:51:20.973Z,15.10
2018-06-10T03:55:27.062Z,15.20
2018-06-10T03:59:33.520Z,15.40
2018-06-10T04:03:39.525Z,15.60
2018-06-10T04:07:45.027Z,15.90
2018-06-10T04:11:49.881Z,16.10
2018-06-10T04:20:00.724Z,16.30
2018-06-10T04:24:06.186Z,16.30
2018-06-10T04:28:10.741Z,16.20
2018-06-10T04:32:15.839Z,16.10
2018-06-10T04:36:21.149Z,16.20
2018-06-10T04:40:26.022Z,16.30
2018-06-10T04:44:35.005Z,16.40
2018-06-10T04:48:40.978Z,16.60
2018-06-10T04:52:46.211Z,16.60
2018-06-10T04:56:52.212Z,16.80
2018-06-10T05:00:57.748Z,16.90
2018-06-10T05:05:03.071Z,17.00
2018-06-10T05:09:09.124Z,17.20
2018-06-10T05:13:14.624Z,17.30
2018-06-10T05:17:19.462Z,17.50
2018-06-10T05:21:25.400Z,17.90
2018-06-10T05:25:30.264Z,18.10
2018-06-10T05:29:35.474Z,18.30
2018-06-10T05:33:40.704Z,18.40
2018-06-10T05:37:46.156Z,18.60
2018-06-10T05:41:52.019Z,18.70
2018-06-10T05:45:56.698Z,18.80
2018-06-10T05:50:01.170Z,18.90
2018-06-10T05:54:06.301Z,19.10
2018-06-10T05:58:13.852Z,19.30
2018-06-10T06:02:18.216Z,19.40
2018-06-10T06:06:22.585Z,19.50
2018-06-10T06:10:27.227Z,19.60
2018-06-10T06:14:31.731Z,19.60
2018-06-10T06:18:36.005Z,19.80
2018-06-10T06:22:40.227Z,19.90
2018-06-10T06:30:48.355Z,20.30
2018-06-10T06:34:52.783Z,20.40
2018-06-10T06:38:56.993Z,20.60
2018-06-10T06:43:01.254Z,20.70
2018-06-10T06:47:05.687Z,20.90
2018-06-10T06:51:09.888Z,21.00
2018-06-10T06:55:14.290Z,21.10
2018-06-10T06:59:18.533Z,21.20
2018-06-10T07:03:22.819Z,21.20
2018-06-10T07:07:27.227Z,21.40
2018-06-10T07:11:31.467Z,21.50
2018-06-10T07:15:35.780Z,21.60
2018-06-10T07:19:40.130Z,21.70
2018-06-10T07:23:44.518Z,21.90
2018-06-10T07:27:48.883Z,22.00
2018-06-10T07:31:53.225Z,22.10
2018-06-10T07:35:57.461Z,22.20
2018-06-10T07:40:01.805Z,22.30
2018-06-10T07:44:06.179Z,22.50
2018-06-10T07:48:10.403Z,22.70
2018-06-10T07:52:14.693Z,22.90
2018-06-10T07:56:18.981Z,23.10
2018-06-10T08:00:23.331Z,23.30
2018-06-10T08:04:27.606Z,23.50
2018-06-10T08:08:35.644Z,23.70
2018-06-10T08:12:39.879Z,23.80
2018-06-10T08:16:44.355Z,23.90
2018-06-10T08:20:58.194Z,24.30
2018-06-10T08:25:02.752Z,24.50
2018-06-10T08:29:07.360Z,24.70
2018-06-10T08:33:11.606Z,24.90
2018-06-10T08:37:15.929Z,25.00
2018-06-10T08:41:20.249Z,25.40
2018-06-10T08:45:24.634Z,25.60
2018-06-10T08:49:28.908Z,25.80
2018-06-10T08:53:33.186Z,27.00
2018-06-10T08:57:37.530Z,27.70
2018-06-10T09:02:01.567Z,29.10
2018-06-10T09:06:11.153Z,28.80
2018-06-10T09:10:16.059Z,30.20
2018-06-10T09:14:20.396Z,30.00
2018-06-10T09:18:24.644Z,30.00
2018-06-10T09:22:29.096Z,29.80
2018-06-10T09:26:33.393Z,29.60
2018-06-10T09:30:37.912Z,31.30
2018-06-10T09:34:42.181Z,32.00
2018-06-10T09:38:46.403Z,32.80
2018-06-10T09:42:50.766Z,32.40
2018-06-10T09:46:55.101Z,31.60
2018-06-10T09:50:59.434Z,30.70
2018-06-10T09:59:07.563Z,28.60
2018-06-10T10:03:11.930Z,28.20
2018-06-10T10:07:16.342Z,28.20
2018-06-10T10:11:20.880Z,27.80
2018-06-10T10:15:25.482Z,27.00
2018-06-10T10:23:33.749Z,26.50
2018-06-10T10:27:42.607Z,26.30
2018-06-10T10:31:47.260Z,26.20
2018-06-10T10:35:51.657Z,25.80
2018-06-10T10:39:55.954Z,25.50
2018-06-10T10:44:00.212Z,25.30
2018-06-10T10:48:04.789Z,25.40
2018-06-10T10:52:09.048Z,26.30
2018-06-10T10:56:13.501Z,27.50
2018-06-10T11:00:17.824Z,28.60
2018-06-10T11:04:22.173Z,29.40
2018-06-10T11:08:26.550Z,28.90
2018-06-10T11:12:30.901Z,28.70
2018-06-10T11:20:39.100Z,28.00
2018-06-10T11:24:43.658Z,28.40
2018-06-10T11:28:48.041Z,29.60
2018-06-10T11:33:12.145Z,30.90
2018-06-10T11:37:16.652Z,32.90
2018-06-10T11:41:21.181Z,33.90
2018-06-10T11:45:25.393Z,35.20
2018-06-10T11:49:29.676Z,34.90
2018-06-10T11:53:34.518Z,36.20
2018-06-10T11:57:38.730Z,36.20
2018-06-10T12:01:44.952Z,35.80
2018-06-10T12:05:49.648Z,36.30
2018-06-10T12:09:54.957Z,34.90
2018-06-10T12:13:59.755Z,34.60
2018-06-10T12:18:04.033Z,34.80
2018-06-10T12:22:08.634Z,35.80
2018-06-10T12:26:13.143Z,35.40
2018-06-10T12:30:17.451Z,35.60
2018-06-10T12:34:21.852Z,35.00
2018-06-10T12:38:30.792Z,34.80
2018-06-10T12:42:35.137Z,36.10
2018-06-10T12:46:39.404Z,36.00
2018-06-10T12:50:43.750Z,35.10
2018-06-10T12:54:48.062Z,34.20
2018-06-10T12:58:52.336Z,34.00
2018-06-10T13:02:56.641Z,33.20
2018-06-10T13:07:00.975Z,32.60
2018-06-10T13:11:05.253Z,32.60
2018-06-10T13:15:09.526Z,31.90
2018-06-10T13:19:13.920Z,30.80
2018-06-10T13:23:18.170Z,29.60
2018-06-10T13:27:22.475Z,28.60
2018-06-10T13:31:26.722Z,27.80
2018-06-10T13:35:31.254Z,27.20
2018-06-10T13:39:35.783Z,27.40
2018-06-10T13:43:40.201Z,27.50
2018-06-10T13:51:48.876Z,28.30
2018-06-10T13:55:53.326Z,29.90
2018-06-10T13:59:57.534Z,31.50
2018-06-10T14:04:02.050Z,32.80
2018-06-10T14:08:06.404Z,34.30
2018-06-10T14:12:10.822Z,34.80
2018-06-10T14:16:15.041Z,33.10
2018-06-10T14:20:19.503Z,31.80
2018-06-10T14:24:23.987Z,30.70
2018-06-10T14:28:28.238Z,30.80
2018-06-10T14:32:32.575Z,32.20
2018-06-10T14:36:36.960Z,31.30
2018-06-10T14:40:41.473Z,31.10
2018-06-10T14:44:45.732Z,30.20
2018-06-10T14:48:50.227Z,28.90
2018-06-10T14:52:54.528Z,28.30
2018-06-10T15:01:02.637Z,29.80
2018-06-10T15:05:07.165Z,30.70
2018-06-10T15:09:11.439Z,32.10
2018-06-10T15:13:15.931Z,33.80
2018-06-10T15:17:20.213Z,35.60
2018-06-10T15:21:24.535Z,35.50
2018-06-10T15:25:29.980Z,34.30
2018-06-10T15:29:34.270Z,32.90
2018-06-10T15:33:38.567Z,31.40
2018-06-10T15:37:42.831Z,30.40
2018-06-10T15:41:47.098Z,29.30
2018-06-10T15:45:51.456Z,28.60
2018-06-10T15:49:55.783Z,28.30
2018-06-10T15:54:00.117Z,28.10
2018-06-10T15:58:04.431Z,27.80
2018-06-10T16:02:08.653Z,27.30
2018-06-10T16:06:12.906Z,27.20
2018-06-10T16:10:17.239Z,27.30
2018-06-10T16:14:21.680Z,27.20
2018-06-10T16:18:26.064Z,26.90
2018-06-10T16:22:30.319Z,26.40
2018-06-10T16:26:34.750Z,25.90
2018-06-10T16:30:39.028Z,25.50
2018-06-10T16:34:43.451Z,25.20
2018-06-10T16:38:47.738Z,24.70
2018-06-10T16:42:52.000Z,24.40
2018-06-10T16:46:56.365Z,24.10
2018-06-10T16:51:00.653Z,23.90
2018-06-10T16:55:05.117Z,23.60
2018-06-10T16:59:09.421Z,23.30
2018-06-10T17:03:13.886Z,23.20
2018-06-10T17:07:18.178Z,23.10
2018-06-10T17:11:22.602Z,23.00
2018-06-10T17:15:26.850Z,23.00
2018-06-10T17:19:32.312Z,23.00
2018-06-10T17:23:36.533Z,22.90
2018-06-10T17:27:40.893Z,22.70
2018-06-10T17:31:45.150Z,22.70
2018-06-10T17:35:49.382Z,22.50
2018-06-10T17:39:53.652Z,22.40
2018-06-10T17:43:57.990Z,22.40
2018-06-10T17:48:02.273Z,22.40
2018-06-10T17:52:06.622Z,22.40
2018-06-10T17:56:10.887Z,22.20
2018-06-10T18:00:15.167Z,22.00
2018-06-10T18:04:19.498Z,21.80
2018-06-10T18:08:23.789Z,21.60
2018-06-10T18:12:29.156Z,21.30
2018-06-10T18:16:33.394Z,21.20
2018-06-10T18:20:37.685Z,21.00
2018-06-10T18:24:41.976Z,20.80
2018-06-10T18:28:46.183Z,20.60
2018-06-10T18:32:50.528Z,20.50
2018-06-10T18:40:58.592Z,20.30
2018-06-10T18:45:02.985Z,20.20
2018-06-10T18:49:07.293Z,20.20
2018-06-10T18:53:11.618Z,20.20
2018-06-10T18:57:15.908Z,20.00
2018-06-10T19:01:20.914Z,20.00
2018-06-10T19:05:26.335Z,19.80
2018-06-10T19:09:30.614Z,20.00
2018-06-10T19:13:34.900Z,19.90
2018-06-10T19:17:39.474Z,19.90
2018-06-10T19:21:44.006Z,19.70
2018-06-10T19:25:48.360Z,19.60
2018-06-10T19:29:52.837Z,19.60
2018-06-10T19:33:57.253Z,19.50
2018-06-10T19:38:02.863Z,19.50
2018-06-10T19:42:07.372Z,19.40
2018-06-10T19:46:11.965Z,19.30
2018-06-10T19:50:16.399Z,19.20
2018-06-10T19:54:20.709Z,19.20
2018-06-10T19:58:25.069Z,19.20
2018-06-10T20:02:32.806Z,19.00
2018-06-10T20:06:37.133Z,19.00
2018-06-10T20:10:42.270Z,18.90
2018-06-10T20:14:46.734Z,18.80
2018-06-10T20:18:51.045Z,18.70
2018-06-10T20:31:04.115Z,18.50
2018-06-10T20:35:09.025Z,18.50
2018-06-10T20:39:13.441Z,18.40
2018-06-10T20:43:18.067Z,18.40
2018-06-10T20:51:26.205Z,18.20
2018-06-10T20:55:30.615Z,18.00
2018-06-10T20:59:35.022Z,17.80
2018-06-10T21:03:39.343Z,17.80
2018-06-10T21:07:43.748Z,17.80
2018-06-10T21:11:48.105Z,17.70
2018-06-10T21:15:52.353Z,17.70
2018-06-10T21:19:56.618Z,17.70
2018-06-10T21:24:01.034Z,17.70
2018-06-10T21:28:05.325Z,17.50
2018-06-10T21:32:09.840Z,17.50
2018-06-10T21:36:14.435Z,17.50
2018-06-10T21:40:18.718Z,17.60
2018-06-10T21:44:23.010Z,17.60
2018-06-10T21:52:31.137Z,17.60
2018-06-10T21:56:35.355Z,17.70
2018-06-10T22:00:39.893Z,17.70
2018-06-10T22:04:44.173Z,17.60
2018-06-10T22:08:48.563Z,17.60
2018-06-10T22:12:52.800Z,17.40
2018-06-10T22:16:57.199Z,17.30
2018-06-10T22:21:01.440Z,17.30
2018-06-10T22:25:05.988Z,17.20
2018-06-10T22:29:10.266Z,17.10
2018-06-10T22:33:14.640Z,16.90
2018-06-10T22:41:22.549Z,16.60
2018-06-10T22:45:26.890Z,16.60
2018-06-10T22:49:31.127Z,16.70
2018-06-10T22:54:16.878Z,16.60
2018-06-10T22:58:21.189Z,16.60
2018-06-10T23:02:25.739Z,16.50
2018-06-10T23:06:29.970Z,16.50
2018-06-10T23:10:34.318Z,16.50
2018-06-10T23:14:38.570Z,16.50
2018-06-10T23:18:42.912Z,16.50
2018-06-10T23:22:47.170Z,16.50
2018-06-10T23:26:51.540Z,16.40
2018-06-10T23:30:55.881Z,16.30
2018-06-10T23:35:01.194Z,16.10
2018-06-10T23:39:07.592Z,16.10
2018-06-10T23:43:11.796Z,16.10
2018-06-10T23:47:16.199Z,16.10
2018-06-10T23:51:20.418Z,16.10
2018-06-10T23:55:24.784Z,16.00
2018-06-10T23:59:29.014Z,15.90
